createdAt,value
2022-08-22T00:01:53.011Z,2.10
2022-08-22T00:02:43.020Z,3.15
2022-08-22T00:02:54.355Z,2.85
2022-08-22T00:02:55.766Z,2.10
2022-08-22T00:02:55.895Z,2.28
2022-08-22T00:03:00.473Z,3.20
2022-08-22T00:03:01.690Z,2.50
2022-08-22T00:03:01.813Z,2.83
2022-08-22T00:04:25.674Z,2.17
2022-08-22T00:06:56.542Z,2.20
2022-08-22T00:09:30.248Z,2.17
2022-08-22T00:12:04.071Z,2.20
2022-08-22T00:14:37.462Z,1.90
2022-08-22T00:17:12.106Z,2.40
2022-08-22T00:19:47.833Z,1.77
2022-08-22T00:22:19.914Z,2.30
2022-08-22T00:24:50.630Z,2.42
2022-08-22T00:27:20.241Z,2.60
2022-08-22T00:29:51.887Z,2.15
2022-08-22T00:32:26.275Z,2.50
2022-08-22T00:35:00.501Z,2.33
2022-08-22T00:37:34.157Z,2.20
2022-08-22T00:40:06.058Z,2.30
2022-08-22T00:42:45.680Z,2.55
2022-08-22T00:45:35.225Z,2.35
2022-08-22T00:48:21.741Z,2.70
2022-08-22T00:50:59.130Z,2.20
2022-08-22T00:53:36.999Z,2.45
2022-08-22T00:56:17.330Z,2.10
2022-08-22T00:58:58.184Z,2.25
2022-08-22T01:01:31.654Z,2.33
2022-08-22T01:04:09.693Z,2.10
2022-08-22T01:06:43.130Z,2.10
2022-08-22T01:09:15.797Z,1.85
2022-08-22T01:11:55.571Z,2.13
2022-08-22T01:14:34.749Z,2.03
2022-08-22T01:17:14.406Z,2.30
2022-08-22T01:19:57.250Z,2.10
2022-08-22T01:22:39.832Z,1.98
2022-08-22T01:25:26.418Z,1.90
2022-08-22T01:28:09.923Z,2.05
2022-08-22T01:30:48.874Z,1.70
2022-08-22T01:33:46.793Z,2.00
2022-08-22T01:36:22.618Z,2.05
2022-08-22T01:39:05.047Z,1.85
2022-08-22T01:41:54.339Z,2.25
2022-08-22T01:44:29.900Z,2.25
2022-08-22T01:47:00.926Z,1.75
2022-08-22T01:49:31.322Z,2.25
2022-08-22T01:52:03.778Z,2.10
2022-08-22T01:54:41.558Z,1.75
2022-08-22T01:57:10.768Z,2.10
2022-08-22T01:59:42.313Z,1.80
2022-08-22T02:02:29.600Z,1.70
2022-08-22T02:05:03.325Z,2.45
2022-08-22T02:07:36.213Z,1.95
2022-08-22T02:10:09.716Z,1.90
2022-08-22T02:12:43.883Z,1.83
2022-08-22T02:15:18.910Z,2.00
2022-08-22T02:18:01.545Z,2.10
2022-08-22T02:20:31.839Z,1.85
2022-08-22T02:23:05.493Z,2.08
2022-08-22T02:25:36.317Z,1.70
2022-08-22T02:28:09.593Z,1.70
2022-08-22T02:30:55.815Z,2.05
2022-08-22T02:33:27.850Z,1.63
2022-08-22T02:35:58.150Z,1.90
2022-08-22T02:38:31.315Z,1.95
2022-08-22T02:41:08.225Z,2.22
2022-08-22T02:43:39.595Z,2.10
2022-08-22T02:46:19.134Z,1.77
2022-08-22T02:48:51.737Z,1.58
2022-08-22T02:51:22.953Z,1.98
2022-08-22T02:53:56.186Z,1.92
2022-08-22T02:56:27.730Z,2.00
2022-08-22T02:59:00.030Z,1.83
2022-08-22T03:01:41.021Z,2.30
2022-08-22T03:04:28.155Z,1.90
2022-08-22T03:07:07.395Z,2.00
2022-08-22T03:09:40.111Z,1.95
2022-08-22T03:12:13.629Z,1.88
2022-08-22T03:14:45.163Z,2.15
2022-08-22T03:17:18.977Z,1.90
2022-08-22T03:19:50.352Z,2.60
2022-08-22T03:22:21.813Z,2.50
2022-08-22T03:24:58.555Z,2.10
2022-08-22T03:27:32.704Z,2.30
2022-08-22T03:30:03.995Z,2.20
2022-08-22T03:32:47.394Z,2.40
2022-08-22T03:35:24.511Z,2.35
2022-08-22T03:37:55.478Z,2.10
2022-08-22T03:40:31.644Z,2.45
2022-08-22T03:43:15.534Z,2.03
2022-08-22T03:45:56.034Z,2.25
2022-08-22T03:48:47.522Z,2.65
2022-08-22T03:51:24.206Z,2.33
2022-08-22T03:54:07.594Z,2.08
2022-08-22T03:57:11.396Z,2.10
2022-08-22T03:59:54.757Z,2.30
2022-08-22T04:02:43.167Z,2.50
2022-08-22T04:05:33.806Z,2.40
2022-08-22T04:08:25.559Z,2.38
2022-08-22T04:11:10.539Z,2.70
2022-08-22T04:14:00.673Z,2.40
2022-08-22T04:16:42.618Z,2.50
2022-08-22T04:19:28.075Z,3.20
2022-08-22T04:22:07.394Z,4.35
2022-08-22T04:24:43.095Z,3.80
2022-08-22T04:27:16.717Z,3.47
2022-08-22T04:29:49.815Z,3.45
2022-08-22T04:32:20.662Z,2.88
2022-08-22T04:34:50.739Z,4.20
2022-08-22T04:37:21.939Z,4.18
2022-08-22T04:39:53.711Z,3.35
2022-08-22T04:42:33.280Z,3.22
2022-08-22T04:45:08.007Z,2.67
2022-08-22T04:47:38.765Z,3.00
2022-08-22T04:50:10.134Z,3.08
2022-08-22T04:52:45.517Z,2.50
2022-08-22T04:55:21.032Z,2.67
2022-08-22T04:57:52.299Z,2.58
2022-08-22T05:00:22.344Z,2.45
2022-08-22T05:02:52.961Z,2.58
2022-08-22T05:05:23.550Z,2.70
2022-08-22T05:07:54.192Z,2.65
2022-08-22T05:10:25.806Z,2.63
2022-08-22T05:12:56.386Z,2.58
2022-08-22T05:15:27.862Z,2.67
2022-08-22T05:17:59.045Z,2.65
2022-08-22T05:20:29.482Z,2.60
2022-08-22T05:22:59.662Z,2.53
2022-08-22T05:25:29.941Z,2.50
2022-08-22T05:28:07.208Z,2.13
2022-08-22T05:30:37.593Z,2.30
2022-08-22T05:33:08.595Z,2.38
2022-08-22T05:35:38.518Z,2.65
2022-08-22T05:38:08.761Z,2.55
2022-08-22T05:40:38.515Z,2.50
2022-08-22T05:43:07.891Z,2.08
2022-08-22T05:45:38.587Z,2.40
2022-08-22T05:48:10.427Z,2.10
2022-08-22T05:50:41.021Z,2.50
2022-08-22T05:53:11.779Z,2.60
2022-08-22T05:55:47.016Z,2.42
2022-08-22T05:58:29.491Z,2.60
2022-08-22T06:01:01.775Z,2.35
2022-08-22T06:03:33.065Z,2.53
2022-08-22T06:06:04.340Z,2.22
2022-08-22T06:08:34.384Z,2.03
2022-08-22T06:11:05.318Z,2.58
2022-08-22T06:13:37.169Z,2.55
2022-08-22T06:16:16.915Z,2.85
2022-08-22T06:18:46.518Z,2.70
2022-08-22T06:21:19.373Z,2.90
2022-08-22T06:23:50.288Z,2.25
2022-08-22T06:26:20.774Z,2.55
2022-08-22T06:28:55.045Z,7.60
2022-08-22T06:31:28.935Z,2.40
2022-08-22T06:34:00.375Z,2.45
2022-08-22T06:36:32.434Z,2.53
2022-08-22T06:39:13.486Z,2.80
2022-08-22T06:41:44.964Z,2.50
2022-08-22T06:44:16.912Z,2.90
2022-08-22T06:46:47.518Z,3.00
2022-08-22T06:49:16.724Z,2.42
2022-08-22T06:51:45.712Z,2.67
2022-08-22T06:54:18.981Z,2.55
2022-08-22T06:56:49.023Z,2.70
2022-08-22T06:59:19.111Z,2.47
2022-08-22T07:01:51.668Z,2.65
2022-08-22T07:04:25.840Z,2.33
2022-08-22T07:06:55.916Z,2.50
2022-08-22T07:09:25.932Z,2.70
2022-08-22T07:11:55.564Z,2.80
2022-08-22T07:14:28.287Z,2.72
2022-08-22T07:16:58.952Z,2.42
2022-08-22T07:19:29.096Z,2.50
2022-08-22T07:21:58.441Z,2.90
2022-08-22T07:24:28.925Z,2.50
2022-08-22T07:27:08.903Z,2.55
2022-08-22T07:29:44.187Z,2.45
2022-08-22T07:32:16.183Z,2.40
2022-08-22T07:34:51.963Z,2.53
2022-08-22T07:37:24.954Z,2.38
2022-08-22T07:39:55.070Z,2.30
2022-08-22T07:42:29.738Z,2.33
2022-08-22T07:45:06.256Z,2.60
2022-08-22T07:47:46.014Z,2.33
2022-08-22T07:50:20.832Z,2.70
2022-08-22T07:52:49.651Z,2.40
2022-08-22T07:55:19.451Z,2.38
2022-08-22T07:57:49.615Z,2.25
2022-08-22T08:00:19.808Z,2.28
2022-08-22T08:02:51.251Z,2.63
2022-08-22T08:05:20.423Z,2.30
2022-08-22T08:07:49.537Z,2.30
2022-08-22T08:10:20.251Z,2.60
2022-08-22T08:12:57.935Z,2.60
2022-08-22T08:15:32.360Z,2.63
2022-08-22T08:18:05.329Z,2.28
2022-08-22T08:20:35.983Z,2.40
2022-08-22T08:23:05.840Z,2.33
2022-08-22T08:25:49.425Z,2.17
2022-08-22T08:28:33.756Z,2.47
2022-08-22T08:31:04.767Z,2.38
2022-08-22T08:33:35.143Z,2.45
2022-08-22T08:36:06.740Z,2.40
2022-08-22T08:38:39.172Z,2.90
2022-08-22T08:41:22.815Z,2.40
2022-08-22T08:43:56.663Z,2.08
2022-08-22T08:46:36.216Z,2.47
2022-08-22T08:49:16.985Z,2.50
2022-08-22T08:52:03.540Z,2.50
2022-08-22T08:54:45.364Z,2.25
2022-08-22T08:57:20.128Z,2.13
2022-08-22T08:59:54.032Z,2.47
2022-08-22T09:02:34.887Z,2.42
2022-08-22T09:05:27.512Z,2.30
2022-08-22T09:08:11.846Z,2.35
2022-08-22T09:10:52.537Z,2.10
2022-08-22T09:13:41.524Z,2.20
2022-08-22T09:16:21.363Z,1.90
2022-08-22T09:19:15.887Z,2.20
2022-08-22T09:22:03.096Z,2.50
2022-08-22T09:24:45.884Z,2.10
2022-08-22T09:27:17.651Z,2.20
2022-08-22T09:29:55.229Z,2.00
2022-08-22T09:32:35.638Z,2.42
2022-08-22T09:35:08.896Z,2.80
2022-08-22T09:37:44.568Z,2.38
2022-08-22T09:40:19.658Z,2.22
2022-08-22T09:42:56.101Z,2.00
2022-08-22T09:45:36.770Z,2.05
2022-08-22T09:48:08.785Z,2.25
2022-08-22T09:50:47.777Z,2.00
2022-08-22T09:53:40.534Z,2.45
2022-08-22T09:56:15.331Z,2.40
2022-08-22T09:58:45.542Z,2.20
2022-08-22T10:01:20.321Z,2.33
2022-08-22T10:04:19.279Z,2.30
2022-08-22T10:06:54.638Z,1.90
2022-08-22T10:09:31.217Z,2.38
2022-08-22T10:12:04.730Z,2.15
2022-08-22T10:14:40.483Z,2.17
2022-08-22T10:17:13.212Z,2.28
2022-08-22T10:19:53.486Z,2.13
2022-08-22T10:22:30.781Z,2.45
2022-08-22T10:25:07.611Z,2.50
2022-08-22T10:27:45.025Z,2.20
2022-08-22T10:30:17.099Z,2.25
2022-08-22T10:32:48.114Z,2.05
2022-08-22T10:35:23.012Z,2.08
2022-08-22T10:37:57.161Z,2.40
2022-08-22T10:40:28.753Z,2.00
2022-08-22T10:43:03.578Z,2.22
2022-08-22T10:45:36.681Z,1.83
2022-08-22T10:48:21.245Z,2.10
2022-08-22T10:50:51.911Z,2.33
2022-08-22T10:53:35.019Z,2.47
2022-08-22T10:56:11.431Z,2.22
2022-08-22T10:58:44.139Z,2.17
2022-08-22T11:01:37.617Z,2.33
2022-08-22T11:04:06.711Z,2.15
2022-08-22T11:06:38.117Z,2.30
2022-08-22T11:09:15.184Z,2.40
2022-08-22T11:11:45.533Z,2.38
2022-08-22T11:14:25.723Z,2.50
2022-08-22T11:16:58.774Z,2.33
2022-08-22T11:19:46.286Z,2.53
2022-08-22T11:22:23.291Z,2.20
2022-08-22T11:25:11.248Z,2.30
2022-08-22T11:27:46.494Z,1.85
2022-08-22T11:30:19.098Z,2.42
2022-08-22T11:33:06.678Z,2.15
2022-08-22T11:35:40.549Z,2.20
2022-08-22T11:38:16.705Z,2.13
2022-08-22T11:40:48.795Z,2.10
2022-08-22T11:43:33.217Z,2.38
2022-08-22T11:46:15.434Z,2.25
2022-08-22T11:48:59.841Z,2.47
2022-08-22T11:51:38.859Z,2.33
2022-08-22T11:54:11.191Z,2.20
2022-08-22T11:56:41.653Z,2.13
2022-08-22T11:59:15.978Z,2.15
2022-08-22T12:01:52.560Z,2.00
2022-08-22T12:04:28.163Z,2.20
2022-08-22T12:07:03.406Z,2.70
2022-08-22T12:09:35.892Z,2.22
2022-08-22T12:12:17.037Z,2.28
2022-08-22T12:14:48.235Z,2.20
2022-08-22T12:17:50.873Z,1.88
2022-08-22T12:20:35.332Z,1.90
2022-08-22T12:23:11.705Z,2.10
2022-08-22T12:25:47.676Z,2.17
2022-08-22T12:28:24.666Z,2.28
2022-08-22T12:31:01.712Z,2.08
2022-08-22T12:33:55.360Z,1.80
2022-08-22T12:36:29.478Z,2.17
2022-08-22T12:39:05.231Z,2.40
2022-08-22T12:41:40.041Z,2.17
2022-08-22T12:44:23.202Z,2.22
2022-08-22T12:46:57.904Z,2.08
2022-08-22T12:49:36.567Z,2.50
2022-08-22T12:52:12.383Z,1.98
2022-08-22T12:54:46.021Z,2.17
2022-08-22T12:57:24.406Z,2.50
2022-08-22T12:59:55.827Z,2.40
2022-08-22T13:02:28.698Z,2.10
2022-08-22T13:05:02.064Z,2.30
2022-08-22T13:07:31.289Z,2.10
2022-08-22T13:10:03.540Z,2.05
2022-08-22T13:12:34.243Z,2.38
2022-08-22T13:15:06.354Z,2.20
2022-08-22T13:17:39.543Z,1.90
2022-08-22T13:20:14.804Z,2.17
2022-08-22T13:22:48.018Z,2.40
2022-08-22T13:25:25.803Z,2.42
2022-08-22T13:27:56.270Z,2.40
2022-08-22T13:30:29.703Z,2.20
2022-08-22T13:33:03.393Z,2.40
2022-08-22T13:35:35.774Z,2.53
2022-08-22T13:38:12.235Z,1.92
2022-08-22T13:40:46.301Z,2.30
2022-08-22T13:43:19.542Z,2.17
2022-08-22T13:45:54.456Z,2.47
2022-08-22T13:48:28.644Z,2.38
2022-08-22T13:51:08.023Z,2.42
2022-08-22T13:53:41.624Z,2.53
2022-08-22T13:56:15.753Z,2.40
2022-08-22T13:58:46.330Z,2.72
2022-08-22T14:01:39.993Z,2.30
2022-08-22T14:04:19.975Z,2.30
2022-08-22T14:07:23.843Z,2.20
2022-08-22T14:09:55.967Z,2.35
2022-08-22T14:12:26.865Z,2.53
2022-08-22T14:14:58.734Z,2.42
2022-08-22T14:17:31.517Z,2.28
2022-08-22T14:20:03.613Z,2.10
2022-08-22T14:22:38.263Z,2.10
2022-08-22T14:25:08.675Z,2.50
2022-08-22T14:27:39.753Z,2.28
2022-08-22T14:30:14.744Z,2.25
2022-08-22T14:32:46.879Z,2.50
2022-08-22T14:35:23.533Z,2.28
2022-08-22T14:38:19.536Z,2.30
2022-08-22T14:40:49.031Z,2.40
2022-08-22T14:43:22.374Z,1.90
2022-08-22T14:45:57.306Z,2.17
2022-08-22T14:48:34.548Z,2.35
2022-08-22T14:51:08.467Z,2.08
2022-08-22T14:53:41.467Z,2.30
2022-08-22T14:56:12.741Z,2.20
2022-08-22T14:58:48.914Z,2.28
2022-08-22T15:01:21.695Z,2.30
2022-08-22T15:03:54.278Z,2.22
2022-08-22T15:06:32.330Z,2.30
2022-08-22T15:09:07.876Z,2.10
2022-08-22T15:11:42.159Z,2.22
2022-08-22T15:14:13.571Z,2.08
2022-08-22T15:16:44.985Z,2.45
2022-08-22T15:19:23.242Z,2.10
2022-08-22T15:21:52.187Z,2.05
2022-08-22T15:24:22.627Z,2.53
2022-08-22T15:26:55.480Z,2.47
2022-08-22T15:29:25.163Z,2.08
2022-08-22T15:31:54.895Z,2.38
2022-08-22T15:34:25.158Z,1.90
2022-08-22T15:37:01.481Z,2.10
2022-08-22T15:39:58.937Z,2.20
2022-08-22T15:42:27.909Z,2.03
2022-08-22T15:44:56.568Z,2.22
2022-08-22T15:47:31.556Z,1.92
2022-08-22T15:50:05.395Z,2.17
2022-08-22T15:52:35.635Z,2.10
2022-08-22T15:55:15.616Z,2.22
2022-08-22T15:57:50.961Z,2.20
2022-08-22T16:00:27.923Z,2.20
2022-08-22T16:02:58.978Z,2.10
2022-08-22T16:05:39.046Z,1.80
2022-08-22T16:08:10.675Z,2.17
2022-08-22T16:10:43.227Z,1.90
2022-08-22T16:13:17.094Z,1.90
2022-08-22T16:16:02.112Z,2.13
2022-08-22T16:18:49.491Z,2.05
2022-08-22T16:21:18.679Z,1.90
2022-08-22T16:24:05.339Z,2.15
2022-08-22T16:26:41.366Z,1.77
2022-08-22T16:29:27.498Z,1.80
2022-08-22T16:31:59.527Z,2.00
2022-08-22T16:34:39.918Z,1.90
2022-08-22T16:37:26.954Z,1.80
2022-08-22T16:40:14.752Z,1.80
2022-08-22T16:42:46.406Z,1.85
2022-08-22T16:45:20.769Z,2.22
2022-08-22T16:47:57.832Z,2.20
2022-08-22T16:50:34.392Z,1.92
2022-08-22T16:53:08.058Z,1.90
2022-08-22T16:55:42.062Z,1.80
2022-08-22T16:58:18.765Z,2.00
2022-08-22T17:00:51.437Z,2.10
2022-08-22T17:03:22.813Z,2.20
2022-08-22T17:05:56.394Z,2.28
2022-08-22T17:08:32.450Z,1.98
2022-08-22T17:11:02.767Z,2.00
2022-08-22T17:13:41.927Z,2.13
2022-08-22T17:16:18.892Z,1.95
2022-08-22T17:18:51.064Z,2.13
2022-08-22T17:21:25.933Z,2.10
2022-08-22T17:24:00.986Z,1.80
2022-08-22T17:26:33.262Z,2.03
2022-08-22T17:29:09.694Z,1.88
2022-08-22T17:31:45.566Z,2.00
2022-08-22T17:34:22.600Z,2.05
2022-08-22T17:36:57.629Z,2.20
2022-08-22T17:39:33.187Z,2.20
2022-08-22T17:42:10.192Z,2.42
2022-08-22T17:44:54.599Z,2.50
2022-08-22T17:47:24.726Z,2.60
2022-08-22T17:49:56.123Z,2.42
2022-08-22T17:52:26.972Z,2.47
2022-08-22T17:54:58.532Z,2.05
2022-08-22T17:57:29.704Z,2.30
2022-08-22T18:00:03.663Z,2.10
2022-08-22T18:02:35.373Z,2.20
2022-08-22T18:05:07.277Z,2.40
2022-08-22T18:07:56.951Z,2.50
2022-08-22T18:10:32.158Z,2.25
2022-08-22T18:13:07.175Z,2.15
2022-08-22T18:15:42.670Z,2.33
2022-08-22T18:18:15.259Z,2.55
2022-08-22T18:20:47.951Z,2.25
2022-08-22T18:23:35.810Z,2.03
2022-08-22T18:26:16.485Z,2.03
2022-08-22T18:28:50.694Z,2.40
2022-08-22T18:31:25.196Z,2.30
2022-08-22T18:33:58.190Z,3.00
2022-08-22T18:36:31.536Z,2.20
2022-08-22T18:39:04.046Z,2.40
2022-08-22T18:41:36.459Z,2.60
2022-08-22T18:44:10.874Z,2.50
2022-08-22T18:46:45.792Z,2.95
2022-08-22T18:49:35.015Z,2.47
2022-08-22T18:52:14.526Z,2.55
2022-08-22T18:54:47.985Z,2.80
2022-08-22T18:57:30.495Z,2.95
2022-08-22T19:00:05.247Z,2.53
2022-08-22T19:02:55.858Z,2.80
2022-08-22T19:05:33.860Z,2.65
2022-08-22T19:08:15.514Z,2.47
2022-08-22T19:10:58.921Z,2.63
2022-08-22T19:13:39.013Z,2.70
2022-08-22T19:16:17.420Z,2.60
2022-08-22T19:18:52.637Z,2.90
2022-08-22T19:21:41.500Z,2.50
2022-08-22T19:24:12.402Z,2.90
2022-08-22T19:26:42.901Z,2.50
2022-08-22T19:29:30.002Z,2.80
2022-08-22T19:32:01.877Z,2.55
2022-08-22T19:34:44.078Z,2.78
2022-08-22T19:37:30.454Z,2.83
2022-08-22T19:40:05.319Z,2.90
2022-08-22T19:42:36.111Z,2.80
2022-08-22T19:45:21.815Z,2.67
2022-08-22T19:48:01.792Z,2.90
2022-08-22T19:50:32.785Z,2.53
2022-08-22T19:53:25.438Z,3.13
2022-08-22T19:56:01.711Z,3.72
2022-08-22T19:58:34.342Z,4.10
2022-08-22T20:01:06.198Z,4.35
2022-08-22T20:03:42.590Z,4.47
2022-08-22T20:06:33.823Z,3.60
2022-08-22T20:09:10.314Z,3.55
2022-08-22T20:11:44.999Z,3.42
2022-08-22T20:14:22.474Z,3.20
2022-08-22T20:17:01.638Z,3.30
2022-08-22T20:19:38.128Z,3.67
2022-08-22T20:22:07.486Z,4.18
2022-08-22T20:24:40.289Z,4.28
2022-08-22T20:27:15.460Z,4.57
2022-08-22T20:29:46.915Z,4.82
2022-08-22T20:32:17.245Z,4.05
2022-08-22T20:34:46.819Z,4.18
2022-08-22T20:37:32.276Z,3.88
2022-08-22T20:40:53.575Z,3.55
2022-08-22T20:43:10.612Z,3.38
2022-08-22T20:45:43.653Z,3.97
2022-08-22T20:48:12.895Z,4.22
2022-08-22T20:50:41.451Z,3.72
2022-08-22T20:53:13.583Z,3.90
2022-08-22T20:55:52.930Z,3.60
2022-08-22T20:58:25.074Z,3.90
2022-08-22T21:00:56.050Z,3.75
2022-08-22T21:03:32.540Z,5.65
2022-08-22T21:06:11.814Z,6.20
2022-08-22T21:08:40.470Z,6.70
2022-08-22T21:11:27.290Z,7.88
2022-08-22T21:13:59.215Z,8.35
2022-08-22T21:16:31.607Z,8.32
2022-08-22T21:19:01.969Z,9.77
2022-08-22T21:21:31.500Z,9.05
2022-08-22T21:24:01.347Z,9.02
2022-08-22T21:26:31.129Z,8.48
2022-08-22T21:29:03.153Z,7.93
2022-08-22T21:31:32.922Z,8.00
2022-08-22T21:34:01.681Z,7.13
2022-08-22T21:36:31.660Z,7.13
2022-08-22T21:39:03.749Z,5.60
2022-08-22T21:41:33.786Z,5.57
2022-08-22T21:44:17.209Z,5.28
2022-08-22T21:46:47.139Z,4.60
2022-08-22T21:49:22.383Z,4.22
2022-08-22T21:51:51.082Z,3.67
2022-08-22T21:54:39.603Z,3.78
2022-08-22T21:57:21.757Z,4.20
2022-08-22T21:59:58.815Z,4.05
2022-08-22T22:02:36.640Z,3.47
2022-08-22T22:05:08.077Z,3.30
2022-08-22T22:07:37.764Z,3.10
2022-08-22T22:10:08.459Z,2.80
2022-08-22T22:12:37.126Z,2.70
2022-08-22T22:15:06.059Z,2.30
2022-08-22T22:17:35.959Z,2.80
2022-08-22T22:20:04.962Z,2.70
2022-08-22T22:22:33.560Z,2.63
2022-08-22T22:25:05.930Z,2.38
2022-08-22T22:27:54.635Z,2.00
2022-08-22T22:30:26.745Z,2.50
2022-08-22T22:32:56.702Z,2.30
2022-08-22T22:35:25.242Z,2.40
2022-08-22T22:37:53.794Z,2.17
2022-08-22T22:40:23.941Z,2.17
2022-08-22T22:42:52.802Z,2.30
2022-08-22T22:45:21.434Z,2.38
2022-08-22T22:47:50.488Z,2.10
2022-08-22T22:50:20.453Z,1.90
2022-08-22T22:52:49.028Z,2.33
2022-08-22T22:55:24.769Z,1.90
2022-08-22T22:57:59.213Z,2.10
2022-08-22T23:00:30.613Z,1.83
2022-08-22T23:03:00.010Z,2.00
2022-08-22T23:05:30.271Z,1.77
2022-08-22T23:07:58.969Z,1.85
2022-08-22T23:10:28.033Z,1.90
2022-08-22T23:12:56.781Z,1.60
2022-08-22T23:15:25.647Z,1.63
2022-08-22T23:17:54.356Z,1.55
2022-08-22T23:20:22.983Z,2.00
2022-08-22T23:22:52.901Z,1.90
2022-08-22T23:25:21.629Z,1.60
2022-08-22T23:27:52.585Z,1.90
2022-08-22T23:30:21.706Z,1.52
2022-08-22T23:32:50.376Z,1.70
2022-08-22T23:35:19.120Z,1.67
2022-08-22T23:37:47.639Z,1.80
2022-08-22T23:40:17.608Z,1.95
2022-08-22T23:42:46.236Z,1.88
2022-08-22T23:45:14.799Z,1.80
2022-08-22T23:47:43.424Z,1.60
2022-08-22T23:50:11.963Z,2.22
2022-08-22T23:52:40.527Z,1.60
2022-08-22T23:55:09.385Z,2.00
2022-08-22T23:57:39.354Z,1.83
